createdAt,value
2024-01-24T00:00:40.975Z,6.53
2024-01-24T00:03:08.088Z,8.30
2024-01-24T00:05:35.138Z,3.20
2024-01-24T00:08:01.984Z,5.37
2024-01-24T00:10:28.786Z,4.17
2024-01-24T00:12:56.703Z,4.77
2024-01-24T00:15:24.039Z,5.07
2024-01-24T00:17:51.118Z,5.83
2024-01-24T00:20:18.081Z,4.77
2024-01-24T00:22:44.906Z,2.77
2024-01-24T00:25:12.265Z,4.50
2024-01-24T00:27:39.155Z,3.70
2024-01-24T00:30:08.626Z,11.03
2024-01-24T00:32:35.569Z,4.40
2024-01-24T00:35:02.388Z,4.07
2024-01-24T00:37:29.213Z,4.93
2024-01-24T00:39:56.102Z,5.63
2024-01-24T00:42:22.968Z,4.70
2024-01-24T00:44:51.952Z,3.37
2024-01-24T00:47:19.952Z,3.23
2024-01-24T00:49:46.819Z,3.70
2024-01-24T00:52:13.957Z,3.80
2024-01-24T00:54:40.798Z,11.10
2024-01-24T00:57:08.190Z,3.50
2024-01-24T00:59:35.046Z,3.23
2024-01-24T01:02:02.098Z,5.53
2024-01-24T01:04:28.987Z,6.93
2024-01-24T01:06:55.788Z,5.03
2024-01-24T01:09:22.607Z,4.67
2024-01-24T01:11:49.422Z,4.93
2024-01-24T01:14:16.239Z,2.63
2024-01-24T01:16:43.081Z,4.77
2024-01-24T01:19:10.049Z,2.93
2024-01-24T01:21:37.022Z,3.70
2024-01-24T01:24:04.144Z,4.20
2024-01-24T01:26:33.889Z,4.07
2024-01-24T01:29:00.912Z,2.13
2024-01-24T01:31:27.765Z,2.47
2024-01-24T01:33:54.936Z,2.63
2024-01-24T01:36:23.622Z,1.67
2024-01-24T01:38:51.072Z,5.17
2024-01-24T01:41:18.362Z,2.00
2024-01-24T01:43:45.897Z,2.17
2024-01-24T01:46:19.006Z,2.10
2024-01-24T01:48:46.221Z,4.10
2024-01-24T01:51:14.058Z,2.17
2024-01-24T01:53:40.977Z,2.57
2024-01-24T01:56:13.038Z,4.47
2024-01-24T01:58:41.061Z,2.40
2024-01-24T02:01:08.892Z,4.33
2024-01-24T02:03:43.558Z,2.90
2024-01-24T02:06:10.497Z,4.30
2024-01-24T02:08:37.535Z,3.07
2024-01-24T02:11:05.307Z,7.37
2024-01-24T02:13:33.034Z,3.13
2024-01-24T02:16:00.530Z,4.97
2024-01-24T02:18:27.478Z,3.63
2024-01-24T02:20:54.384Z,2.20
2024-01-24T02:23:24.276Z,2.30
2024-01-24T02:25:51.665Z,7.10
2024-01-24T02:28:19.235Z,2.47
2024-01-24T02:30:46.369Z,5.47
2024-01-24T02:33:14.203Z,4.87
2024-01-24T02:35:41.144Z,5.73
2024-01-24T02:38:07.997Z,4.57
2024-01-24T02:40:34.877Z,10.83
2024-01-24T02:43:01.751Z,6.23
2024-01-24T02:45:28.601Z,7.07
2024-01-24T02:47:55.505Z,8.47
2024-01-24T02:50:22.323Z,5.93
2024-01-24T02:52:49.168Z,12.37
2024-01-24T02:55:19.122Z,8.27
2024-01-24T02:57:46.268Z,9.57
2024-01-24T03:00:15.004Z,8.43
2024-01-24T03:02:42.220Z,6.00
2024-01-24T03:05:12.433Z,8.17
2024-01-24T03:07:41.382Z,8.03
2024-01-24T03:10:09.557Z,12.70
2024-01-24T03:12:36.969Z,7.63
2024-01-24T03:15:04.026Z,10.57
2024-01-24T03:17:30.931Z,9.40
2024-01-24T03:19:57.726Z,10.13
2024-01-24T03:22:26.282Z,6.07
2024-01-24T03:24:53.763Z,6.27
2024-01-24T03:27:20.779Z,11.50
2024-01-24T03:29:47.689Z,9.50
2024-01-24T03:32:14.507Z,9.87
2024-01-24T03:34:41.398Z,14.57
2024-01-24T03:37:08.208Z,12.43
2024-01-24T03:39:37.224Z,7.80
2024-01-24T03:42:04.930Z,6.77
2024-01-24T03:44:31.756Z,8.77
2024-01-24T03:46:58.677Z,11.10
2024-01-24T03:49:25.570Z,10.13
2024-01-24T03:51:52.449Z,9.47
2024-01-24T03:54:19.355Z,11.97
2024-01-24T03:56:46.331Z,16.17
2024-01-24T03:59:13.149Z,10.27
2024-01-24T04:01:40.020Z,12.97
2024-01-24T04:04:06.994Z,10.43
2024-01-24T04:06:34.401Z,7.83
2024-01-24T04:09:01.405Z,11.47
2024-01-24T04:11:28.244Z,22.17
2024-01-24T04:13:55.213Z,23.70
2024-01-24T04:16:22.004Z,11.93
2024-01-24T04:18:51.392Z,19.97
2024-01-24T04:21:18.521Z,17.43
2024-01-24T04:23:45.565Z,18.27
2024-01-24T04:26:13.448Z,14.70
2024-01-24T04:28:40.313Z,23.30
2024-01-24T04:31:07.146Z,25.87
2024-01-24T04:33:34.233Z,14.77
2024-01-24T04:36:01.480Z,20.60
2024-01-24T04:38:28.290Z,21.83
2024-01-24T04:40:55.148Z,18.40
2024-01-24T04:43:23.027Z,16.90
2024-01-24T04:45:50.063Z,17.90
2024-01-24T04:48:17.113Z,27.60
2024-01-24T04:50:44.302Z,20.13
2024-01-24T04:53:11.326Z,22.57
2024-01-24T04:55:38.156Z,19.27
2024-01-24T04:58:05.695Z,19.90
2024-01-24T05:00:32.832Z,18.13
2024-01-24T05:02:59.843Z,26.57
2024-01-24T05:05:26.879Z,26.20
2024-01-24T05:07:53.821Z,18.43
2024-01-24T05:10:20.710Z,21.90
2024-01-24T05:12:47.571Z,18.37
2024-01-24T05:15:14.636Z,20.03
2024-01-24T05:17:41.667Z,26.23
2024-01-24T05:20:09.435Z,20.80
2024-01-24T05:22:36.304Z,22.77
2024-01-24T05:25:03.323Z,24.60
2024-01-24T05:27:30.194Z,24.33
2024-01-24T05:29:57.117Z,22.00
2024-01-24T05:32:24.504Z,22.97
2024-01-24T05:34:51.547Z,35.03
2024-01-24T05:37:18.541Z,26.80
2024-01-24T05:39:45.413Z,26.00
2024-01-24T05:42:12.310Z,29.67
2024-01-24T05:44:39.113Z,28.27
2024-01-24T05:47:06.296Z,33.43
2024-01-24T05:49:39.392Z,32.77
2024-01-24T05:52:07.041Z,30.20
2024-01-24T05:54:34.756Z,35.60
2024-01-24T05:57:01.574Z,29.17
2024-01-24T05:59:28.678Z,27.93
2024-01-24T06:01:55.530Z,31.27
2024-01-24T06:04:22.569Z,37.10
2024-01-24T06:06:49.617Z,34.77
2024-01-24T06:09:20.137Z,28.03
2024-01-24T06:11:49.406Z,23.57
2024-01-24T06:14:16.741Z,29.00
2024-01-24T06:16:43.594Z,30.80
2024-01-24T06:19:10.545Z,33.23
2024-01-24T06:21:37.513Z,29.47
2024-01-24T06:24:06.858Z,30.37
2024-01-24T06:26:33.886Z,24.33
2024-01-24T06:29:00.685Z,24.67
2024-01-24T06:31:27.537Z,25.40
2024-01-24T06:33:55.139Z,23.83
2024-01-24T06:36:22.270Z,32.07
2024-01-24T06:38:49.297Z,24.57
2024-01-24T06:41:16.756Z,25.93
2024-01-24T06:43:43.944Z,21.17
2024-01-24T06:46:10.846Z,32.47
2024-01-24T06:48:39.281Z,36.97
2024-01-24T06:51:06.131Z,28.27
2024-01-24T06:53:32.989Z,25.07
2024-01-24T06:55:59.852Z,29.80
2024-01-24T06:58:26.687Z,25.17
2024-01-24T07:00:53.896Z,29.40
2024-01-24T07:03:23.441Z,30.47
2024-01-24T07:05:52.313Z,23.30
2024-01-24T07:08:19.197Z,31.13
2024-01-24T07:10:46.024Z,29.77
2024-01-24T07:13:12.834Z,29.50
2024-01-24T07:15:39.895Z,27.93
2024-01-24T07:18:07.090Z,36.37
2024-01-24T07:20:34.011Z,31.43
2024-01-24T07:23:01.013Z,27.00
2024-01-24T07:25:27.916Z,28.77
2024-01-24T07:27:54.972Z,25.00
2024-01-24T07:30:23.655Z,31.33
2024-01-24T07:32:50.949Z,39.07
2024-01-24T07:35:17.926Z,33.13
2024-01-24T07:37:45.592Z,30.20
2024-01-24T07:40:13.577Z,38.77
2024-01-24T07:42:40.530Z,25.50
2024-01-24T07:45:10.187Z,24.10
2024-01-24T07:47:37.363Z,20.57
2024-01-24T07:50:07.900Z,31.17
2024-01-24T07:52:40.876Z,32.40
2024-01-24T07:55:11.456Z,31.70
2024-01-24T07:57:38.905Z,27.90
2024-01-24T08:00:06.904Z,21.30
2024-01-24T08:02:34.074Z,28.67
2024-01-24T08:05:01.947Z,32.90
2024-01-24T08:07:29.735Z,30.40
2024-01-24T08:09:56.987Z,30.93
2024-01-24T08:12:24.700Z,35.00
2024-01-24T08:14:51.770Z,22.00
2024-01-24T08:17:18.956Z,32.37
2024-01-24T08:19:46.154Z,28.53
2024-01-24T08:22:13.143Z,34.80
2024-01-24T08:24:40.364Z,31.97
2024-01-24T08:27:07.388Z,28.93
2024-01-24T08:29:37.744Z,26.10
2024-01-24T08:32:06.591Z,30.37
2024-01-24T08:34:36.339Z,34.37
2024-01-24T08:37:03.679Z,31.00
2024-01-24T08:39:30.595Z,32.40
2024-01-24T08:41:57.718Z,28.90
2024-01-24T08:44:24.596Z,29.43
2024-01-24T08:46:52.396Z,26.47
2024-01-24T08:49:19.683Z,33.40
2024-01-24T08:51:46.860Z,40.73
2024-01-24T08:54:13.868Z,23.90
2024-01-24T08:56:40.901Z,33.50
2024-01-24T08:59:08.148Z,27.97
2024-01-24T09:01:35.608Z,31.20
2024-01-24T09:04:02.647Z,29.63
2024-01-24T09:06:30.129Z,25.93
2024-01-24T09:08:57.559Z,34.87
2024-01-24T09:11:29.470Z,31.83
2024-01-24T09:14:01.712Z,31.37
2024-01-24T09:16:29.071Z,24.90
2024-01-24T09:18:56.175Z,28.70
2024-01-24T09:21:23.380Z,35.53
2024-01-24T09:23:53.239Z,34.50
2024-01-24T09:26:20.819Z,22.80
2024-01-24T09:28:48.095Z,27.70
2024-01-24T09:31:15.561Z,26.23
2024-01-24T09:33:42.653Z,30.03
2024-01-24T09:36:09.667Z,24.37
2024-01-24T09:38:36.572Z,26.40
2024-01-24T09:41:12.738Z,31.67
2024-01-24T09:43:40.483Z,33.90
2024-01-24T09:46:13.479Z,27.90
2024-01-24T09:48:41.996Z,32.23
2024-01-24T09:51:10.460Z,26.33
2024-01-24T09:53:39.827Z,25.73
2024-01-24T09:56:07.849Z,30.00
2024-01-24T09:58:34.672Z,28.07
2024-01-24T10:01:05.594Z,30.87
2024-01-24T10:03:35.714Z,28.23
2024-01-24T10:06:07.091Z,21.87
2024-01-24T10:08:34.075Z,23.73
2024-01-24T10:11:00.870Z,20.83
2024-01-24T10:13:27.713Z,21.93
2024-01-24T10:15:55.564Z,30.50
2024-01-24T10:18:24.576Z,26.30
2024-01-24T10:20:53.304Z,33.93
2024-01-24T10:23:20.556Z,26.10
2024-01-24T10:25:48.074Z,30.63
2024-01-24T10:28:18.113Z,25.20
2024-01-24T10:30:47.606Z,26.73
2024-01-24T10:33:16.589Z,24.83
2024-01-24T10:35:45.176Z,28.90
2024-01-24T10:38:13.202Z,27.60
2024-01-24T10:40:43.181Z,27.30
2024-01-24T10:43:15.538Z,24.30
2024-01-24T10:45:45.170Z,33.87
2024-01-24T10:48:12.994Z,28.03
2024-01-24T10:50:41.349Z,25.10
2024-01-24T10:53:10.646Z,22.53
2024-01-24T10:55:38.964Z,24.90
2024-01-24T10:58:10.333Z,27.63
2024-01-24T11:00:38.921Z,26.27
2024-01-24T11:03:07.081Z,34.20
2024-01-24T11:05:48.239Z,19.67
2024-01-24T11:08:40.430Z,33.47
2024-01-24T11:11:18.301Z,31.30
2024-01-24T11:13:45.890Z,23.77
2024-01-24T11:16:41.133Z,22.27
2024-01-24T11:19:25.827Z,20.50
2024-01-24T11:21:56.614Z,31.80
2024-01-24T11:24:41.950Z,25.73
2024-01-24T11:27:37.213Z,25.10
2024-01-24T11:30:38.680Z,31.83
2024-01-24T11:33:06.149Z,19.83
2024-01-24T11:35:41.808Z,25.50
2024-01-24T11:38:25.547Z,18.27
2024-01-24T11:41:13.713Z,22.73
2024-01-24T11:43:45.098Z,26.83
2024-01-24T11:46:13.087Z,19.97
2024-01-24T11:48:41.103Z,29.93
2024-01-24T11:51:10.162Z,21.83
2024-01-24T11:53:37.105Z,23.40
2024-01-24T11:56:08.900Z,32.63
2024-01-24T11:58:36.089Z,22.77
2024-01-24T12:01:08.932Z,26.87
2024-01-24T12:03:36.554Z,26.33
2024-01-24T12:06:04.819Z,25.80
2024-01-24T12:08:32.014Z,26.23
2024-01-24T12:10:59.069Z,20.03
2024-01-24T12:13:31.263Z,27.03
2024-01-24T12:15:59.668Z,21.03
2024-01-24T12:18:28.798Z,25.03
2024-01-24T12:20:58.241Z,25.67
2024-01-24T12:23:28.283Z,28.53
2024-01-24T12:25:55.324Z,31.27
2024-01-24T12:28:24.715Z,21.73
2024-01-24T12:30:54.777Z,21.47
2024-01-24T12:33:22.508Z,23.80
2024-01-24T12:35:51.243Z,21.43
2024-01-24T12:38:19.074Z,25.07
2024-01-24T12:40:54.778Z,28.37
2024-01-24T12:43:24.273Z,22.77
2024-01-24T12:45:53.443Z,18.87
2024-01-24T12:48:23.555Z,21.87
2024-01-24T12:50:52.222Z,16.40
2024-01-24T12:53:20.841Z,17.27
2024-01-24T12:55:48.268Z,20.17
2024-01-24T12:58:15.596Z,14.17
2024-01-24T13:00:42.663Z,16.47
2024-01-24T13:03:09.672Z,21.97
2024-01-24T13:05:42.830Z,18.30
2024-01-24T13:08:14.890Z,28.70
2024-01-24T13:10:46.739Z,19.57
2024-01-24T13:13:14.843Z,20.27
2024-01-24T13:15:42.408Z,17.80
2024-01-24T13:18:10.213Z,18.03
2024-01-24T13:20:37.656Z,21.63
2024-01-24T13:23:04.962Z,20.27
2024-01-24T13:25:31.899Z,19.27
2024-01-24T13:28:00.033Z,23.40
2024-01-24T13:30:27.937Z,21.17
2024-01-24T13:32:55.660Z,23.23
2024-01-24T13:35:23.182Z,19.33
2024-01-24T13:37:50.579Z,17.03
2024-01-24T13:40:18.484Z,21.60
2024-01-24T13:42:46.453Z,15.80
2024-01-24T13:45:13.805Z,16.97
2024-01-24T13:47:40.913Z,23.47
2024-01-24T13:50:08.542Z,22.03
2024-01-24T13:52:35.638Z,23.17
2024-01-24T13:55:03.054Z,18.33
2024-01-24T13:57:30.982Z,17.07
2024-01-24T13:59:58.473Z,24.10
2024-01-24T14:02:25.756Z,22.90
2024-01-24T14:04:52.775Z,19.30
2024-01-24T14:07:19.758Z,18.43
2024-01-24T14:09:46.742Z,22.43
2024-01-24T14:12:13.774Z,24.13
2024-01-24T14:14:40.663Z,23.77
2024-01-24T14:17:07.571Z,18.23
2024-01-24T14:19:34.516Z,25.67
2024-01-24T14:22:01.501Z,27.23
2024-01-24T14:24:28.449Z,17.07
2024-01-24T14:26:55.277Z,19.93
2024-01-24T14:29:24.357Z,16.40
2024-01-24T14:31:51.289Z,20.07
2024-01-24T14:34:18.353Z,24.30
2024-01-24T14:36:52.037Z,24.27
2024-01-24T14:39:22.906Z,21.33
2024-01-24T14:41:50.171Z,19.13
2024-01-24T14:44:18.000Z,18.33
2024-01-24T14:46:44.814Z,24.07
2024-01-24T14:49:12.244Z,24.03
2024-01-24T14:51:39.199Z,31.60
2024-01-24T14:54:06.576Z,25.50
2024-01-24T14:56:33.603Z,19.70
2024-01-24T14:59:00.477Z,27.10
2024-01-24T15:01:27.473Z,26.50
2024-01-24T15:03:54.996Z,23.93
2024-01-24T15:06:22.010Z,21.10
2024-01-24T15:08:48.933Z,30.93
2024-01-24T15:11:16.125Z,19.20
2024-01-24T15:13:42.965Z,19.07
2024-01-24T15:16:10.651Z,18.50
2024-01-24T15:18:39.451Z,20.67
2024-01-24T15:21:09.082Z,21.60
2024-01-24T15:23:40.270Z,22.43
2024-01-24T15:26:08.663Z,20.43
2024-01-24T15:28:38.240Z,21.03
2024-01-24T15:31:07.379Z,21.70
2024-01-24T15:33:34.973Z,21.47
2024-01-24T15:36:02.420Z,21.03
2024-01-24T15:38:29.360Z,20.30
2024-01-24T15:40:56.419Z,24.13
2024-01-24T15:43:23.482Z,16.63
2024-01-24T15:45:50.350Z,21.93
2024-01-24T15:48:18.417Z,20.93
2024-01-24T15:50:45.545Z,18.07
2024-01-24T15:53:12.485Z,23.83
2024-01-24T15:55:39.448Z,24.00
2024-01-24T15:58:06.464Z,18.30
2024-01-24T16:00:34.052Z,18.37
2024-01-24T16:03:01.276Z,25.13
2024-01-24T16:05:28.309Z,29.63
2024-01-24T16:07:55.397Z,26.33
2024-01-24T16:10:22.697Z,21.57
2024-01-24T16:12:50.116Z,30.53
2024-01-24T16:15:17.159Z,31.80
2024-01-24T16:17:44.069Z,22.20
2024-01-24T16:20:12.240Z,20.17
2024-01-24T16:22:46.963Z,28.90
2024-01-24T16:25:25.398Z,26.47
2024-01-24T16:27:53.303Z,30.20
2024-01-24T16:30:20.896Z,22.23
2024-01-24T16:32:53.960Z,21.50
2024-01-24T16:35:21.382Z,31.33
2024-01-24T16:37:48.408Z,24.73
2024-01-24T16:40:15.702Z,27.00
2024-01-24T16:42:42.844Z,27.40
2024-01-24T16:45:10.447Z,28.47
2024-01-24T16:47:37.438Z,21.00
2024-01-24T16:50:07.088Z,22.70
2024-01-24T16:52:34.497Z,26.63
2024-01-24T16:55:01.972Z,22.60
2024-01-24T16:57:29.566Z,21.53
2024-01-24T16:59:58.377Z,22.73
2024-01-24T17:02:34.579Z,20.93
2024-01-24T17:05:05.998Z,22.50
2024-01-24T17:07:33.000Z,19.63
2024-01-24T17:10:01.367Z,28.63
2024-01-24T17:12:29.244Z,24.03
2024-01-24T17:14:57.156Z,23.07
2024-01-24T17:17:24.048Z,19.60
2024-01-24T17:19:50.995Z,25.60
2024-01-24T17:22:17.828Z,27.83
2024-01-24T17:24:44.752Z,22.67
2024-01-24T17:27:11.646Z,26.00
2024-01-24T17:29:40.174Z,20.93
2024-01-24T17:32:07.141Z,26.33
2024-01-24T17:34:34.335Z,28.53
2024-01-24T17:37:01.410Z,21.60
2024-01-24T17:39:28.492Z,29.20
2024-01-24T17:41:55.660Z,17.40
2024-01-24T17:44:22.570Z,22.93
2024-01-24T17:46:49.476Z,21.77
2024-01-24T17:49:17.170Z,23.20
2024-01-24T17:51:44.825Z,24.67
2024-01-24T17:54:12.020Z,22.63
2024-01-24T17:56:38.885Z,24.43
2024-01-24T17:59:07.909Z,26.87
2024-01-24T18:01:35.179Z,28.07
2024-01-24T18:04:02.210Z,28.27
2024-01-24T18:06:29.292Z,18.87
2024-01-24T18:08:56.501Z,20.77
2024-01-24T18:11:24.158Z,23.23
2024-01-24T18:13:51.057Z,24.20
2024-01-24T18:16:17.853Z,28.57
2024-01-24T18:18:44.773Z,22.67
2024-01-24T18:21:12.357Z,19.53
2024-01-24T18:23:39.329Z,20.27
2024-01-24T18:26:06.341Z,29.70
2024-01-24T18:28:33.165Z,16.10
2024-01-24T18:31:00.079Z,21.27
2024-01-24T18:33:27.124Z,21.33
2024-01-24T18:35:53.992Z,21.57
2024-01-24T18:38:20.870Z,21.27
2024-01-24T18:40:47.895Z,21.60
2024-01-24T18:43:14.808Z,19.63
2024-01-24T18:45:41.770Z,23.77
2024-01-24T18:48:09.856Z,20.57
2024-01-24T18:50:37.486Z,21.73
2024-01-24T18:53:07.470Z,28.77
2024-01-24T18:55:34.380Z,30.23
2024-01-24T18:58:01.335Z,24.40
2024-01-24T19:00:28.410Z,27.10
2024-01-24T19:02:58.572Z,25.30
2024-01-24T19:05:34.202Z,32.20
2024-01-24T19:08:06.380Z,30.43
2024-01-24T19:10:33.309Z,21.47
2024-01-24T19:13:00.493Z,25.43
2024-01-24T19:15:28.330Z,21.80
2024-01-24T19:17:56.006Z,27.90
2024-01-24T19:20:23.016Z,22.80
2024-01-24T19:22:50.079Z,29.27
2024-01-24T19:25:16.874Z,21.97
2024-01-24T19:27:43.826Z,20.23
2024-01-24T19:30:11.295Z,19.43
2024-01-24T19:32:38.281Z,24.23
2024-01-24T19:35:05.726Z,20.50
2024-01-24T19:37:33.998Z,29.77
2024-01-24T19:40:01.246Z,30.07
2024-01-24T19:42:28.513Z,27.67
2024-01-24T19:44:55.816Z,21.83
2024-01-24T19:47:28.880Z,24.93
2024-01-24T19:49:56.956Z,25.20
2024-01-24T19:52:24.086Z,26.03
2024-01-24T19:54:51.878Z,13.53
2024-01-24T19:57:18.889Z,15.90
2024-01-24T19:59:45.824Z,23.07
2024-01-24T20:02:12.729Z,21.60
2024-01-24T20:04:39.732Z,26.07
2024-01-24T20:07:06.761Z,67.50
2024-01-24T20:09:34.288Z,60.50
2024-01-24T20:12:01.131Z,24.13
2024-01-24T20:14:28.056Z,22.13
2024-01-24T20:16:55.349Z,22.67
2024-01-24T20:19:22.364Z,29.40
2024-01-24T20:21:49.191Z,23.50
2024-01-24T20:24:19.918Z,28.40
2024-01-24T20:26:46.879Z,18.57
2024-01-24T20:29:13.753Z,25.97
2024-01-24T20:31:40.661Z,15.27
2024-01-24T20:34:07.745Z,25.77
2024-01-24T20:36:37.808Z,24.57
2024-01-24T20:39:04.701Z,26.37
2024-01-24T20:41:32.032Z,30.60
2024-01-24T20:43:59.185Z,22.70
2024-01-24T20:46:26.166Z,25.43
2024-01-24T20:48:53.419Z,30.80
2024-01-24T20:51:20.296Z,27.50
2024-01-24T20:53:47.179Z,27.83
2024-01-24T20:56:15.096Z,29.70
2024-01-24T20:58:42.088Z,19.80
2024-01-24T21:01:09.077Z,37.80
2024-01-24T21:03:36.204Z,29.60
2024-01-24T21:06:03.629Z,28.63
2024-01-24T21:08:30.912Z,23.57
2024-01-24T21:11:03.086Z,24.17
2024-01-24T21:13:31.533Z,24.40
2024-01-24T21:15:58.991Z,32.53
2024-01-24T21:18:27.500Z,23.20
2024-01-24T21:20:54.668Z,32.77
2024-01-24T21:23:22.069Z,22.90
2024-01-24T21:25:49.002Z,22.03
2024-01-24T21:28:17.015Z,23.00
2024-01-24T21:30:43.977Z,20.07
2024-01-24T21:33:10.911Z,25.53
2024-01-24T21:35:37.807Z,22.87
2024-01-24T21:38:04.979Z,30.30
2024-01-24T21:40:31.869Z,28.10
2024-01-24T21:42:59.006Z,24.47
2024-01-24T21:45:25.866Z,30.00
2024-01-24T21:47:52.808Z,23.40
2024-01-24T21:50:19.667Z,24.00
2024-01-24T21:52:46.926Z,23.63
2024-01-24T21:55:14.038Z,22.27
2024-01-24T21:57:43.098Z,20.33
2024-01-24T22:00:11.041Z,25.10
2024-01-24T22:02:37.967Z,20.47
2024-01-24T22:05:05.017Z,26.07
2024-01-24T22:07:31.928Z,21.63
2024-01-24T22:09:58.905Z,18.73
2024-01-24T22:12:25.749Z,20.93
2024-01-24T22:14:52.626Z,18.73
2024-01-24T22:17:19.522Z,17.57
2024-01-24T22:19:46.449Z,15.87
2024-01-24T22:22:13.422Z,15.33
2024-01-24T22:24:40.352Z,16.50
2024-01-24T22:27:07.273Z,20.40
2024-01-24T22:29:34.285Z,22.10
2024-01-24T22:32:02.053Z,24.50
2024-01-24T22:34:29.132Z,22.93
2024-01-24T22:36:56.336Z,16.93
2024-01-24T22:39:23.190Z,16.30
2024-01-24T22:41:49.983Z,13.30
2024-01-24T22:44:19.942Z,23.30
2024-01-24T22:46:46.783Z,17.37
2024-01-24T22:49:13.852Z,21.97
2024-01-24T22:51:40.863Z,19.33
2024-01-24T22:54:08.863Z,18.20
2024-01-24T22:56:35.772Z,20.80
2024-01-24T22:59:02.680Z,18.93
2024-01-24T23:01:29.776Z,18.90
2024-01-24T23:03:57.288Z,23.17
2024-01-24T23:06:24.262Z,18.80
2024-01-24T23:08:51.207Z,16.67
2024-01-24T23:11:18.358Z,27.30
2024-01-24T23:13:45.267Z,22.30
2024-01-24T23:16:12.216Z,20.83
2024-01-24T23:18:39.172Z,28.47
2024-01-24T23:21:06.134Z,24.57
2024-01-24T23:23:32.943Z,18.47
2024-01-24T23:25:59.861Z,23.43
2024-01-24T23:28:26.709Z,18.90
2024-01-24T23:30:53.700Z,19.70
2024-01-24T23:33:20.772Z,23.57
2024-01-24T23:35:47.785Z,20.47
2024-01-24T23:38:14.756Z,17.03
2024-01-24T23:40:41.589Z,18.63
2024-01-24T23:43:08.522Z,22.87
2024-01-24T23:45:35.403Z,23.80
2024-01-24T23:48:02.514Z,22.47
2024-01-24T23:50:29.730Z,22.13
2024-01-24T23:52:58.878Z,25.73
2024-01-24T23:55:26.928Z,20.17
2024-01-24T23:57:55.117Z,24.13
